createdAt,value
2022-10-06T00:00:51.799Z,10.21
2022-10-06T00:01:51.824Z,10.20
2022-10-06T00:02:51.764Z,10.19
2022-10-06T00:03:51.788Z,10.17
2022-10-06T00:04:51.714Z,10.16
2022-10-06T00:05:51.743Z,10.14
2022-10-06T00:06:51.739Z,10.12
2022-10-06T00:07:51.740Z,10.10
2022-10-06T00:08:51.668Z,10.08
2022-10-06T00:09:51.655Z,10.06
2022-10-06T00:10:51.651Z,10.05
2022-10-06T00:11:51.649Z,10.03
2022-10-06T00:12:51.637Z,10.00
2022-10-06T00:13:51.675Z,9.97
2022-10-06T00:14:51.620Z,9.95
2022-10-06T00:15:51.681Z,9.92
2022-10-06T00:16:51.598Z,9.89
2022-10-06T00:17:51.586Z,9.87
2022-10-06T00:18:51.572Z,9.85
2022-10-06T00:19:51.629Z,9.85
2022-10-06T00:20:51.550Z,9.85
2022-10-06T00:21:51.599Z,9.85
2022-10-06T00:22:51.535Z,9.86
2022-10-06T00:23:51.538Z,9.88
2022-10-06T00:24:51.509Z,9.91
2022-10-06T00:25:51.497Z,9.93
2022-10-06T00:26:51.507Z,9.95
2022-10-06T00:27:51.539Z,9.98
2022-10-06T00:28:51.486Z,10.01
2022-10-06T00:29:51.454Z,10.03
2022-10-06T00:30:51.519Z,10.05
2022-10-06T00:31:51.451Z,10.06
2022-10-06T00:32:51.448Z,10.06
2022-10-06T00:33:51.418Z,10.06
2022-10-06T00:34:51.480Z,10.06
2022-10-06T00:35:51.395Z,10.06
2022-10-06T00:36:51.401Z,10.05
2022-10-06T00:37:51.390Z,10.03
2022-10-06T00:38:51.381Z,10.02
2022-10-06T00:39:51.356Z,10.00
2022-10-06T00:40:51.420Z,9.98
2022-10-06T00:41:51.334Z,9.96
2022-10-06T00:42:51.343Z,9.94
2022-10-06T00:43:51.320Z,9.94
2022-10-06T00:44:51.319Z,9.95
2022-10-06T00:45:51.452Z,9.95
2022-10-06T00:46:51.291Z,9.96
2022-10-06T00:47:51.277Z,9.98
2022-10-06T00:48:51.319Z,9.99
2022-10-06T00:49:51.279Z,9.99
2022-10-06T00:50:51.330Z,9.99
2022-10-06T00:51:51.286Z,9.99
2022-10-06T00:52:51.231Z,10.00
2022-10-06T00:53:51.218Z,10.00
2022-10-06T00:54:51.226Z,10.01
2022-10-06T00:55:51.199Z,10.02
2022-10-06T00:56:51.255Z,10.05
2022-10-06T00:57:51.228Z,10.07
2022-10-06T00:58:51.216Z,10.10
2022-10-06T00:59:51.183Z,10.13
2022-10-06T01:00:51.152Z,10.16
2022-10-06T01:01:51.203Z,10.18
2022-10-06T01:02:51.177Z,10.20
2022-10-06T01:03:51.193Z,10.23
2022-10-06T01:04:51.112Z,10.25
2022-10-06T01:05:51.095Z,10.27
2022-10-06T01:06:51.113Z,10.28
2022-10-06T01:07:51.094Z,10.29
2022-10-06T01:08:51.082Z,10.29
2022-10-06T01:09:51.129Z,10.30
2022-10-06T01:10:51.117Z,10.30
2022-10-06T01:11:51.039Z,10.30
2022-10-06T01:12:51.067Z,10.31
2022-10-06T01:13:51.022Z,10.32
2022-10-06T01:14:51.015Z,10.31
2022-10-06T01:15:51.024Z,10.31
2022-10-06T01:16:51.045Z,10.31
2022-10-06T01:17:50.991Z,10.30
2022-10-06T01:18:50.978Z,10.29
2022-10-06T01:19:50.981Z,10.29
2022-10-06T01:20:50.963Z,10.27
2022-10-06T01:21:50.941Z,10.25
2022-10-06T01:22:50.974Z,10.23
2022-10-06T01:23:50.930Z,10.21
2022-10-06T01:24:50.933Z,10.20
2022-10-06T01:25:50.945Z,10.17
2022-10-06T01:26:50.936Z,10.15
2022-10-06T01:27:50.880Z,10.13
2022-10-06T01:28:50.945Z,10.10
2022-10-06T01:29:50.876Z,10.07
2022-10-06T01:30:50.977Z,10.05
2022-10-06T01:31:50.894Z,10.03
2022-10-06T01:32:50.832Z,10.01
2022-10-06T01:33:50.819Z,10.00
2022-10-06T01:34:50.864Z,9.99
2022-10-06T01:35:50.810Z,9.98
2022-10-06T01:36:50.788Z,9.97
2022-10-06T01:37:50.842Z,9.96
2022-10-06T01:38:50.774Z,9.97
2022-10-06T01:39:50.757Z,9.98
2022-10-06T01:40:50.757Z,9.98
2022-10-06T01:41:50.792Z,10.00
2022-10-06T01:42:50.734Z,10.01
2022-10-06T01:43:50.733Z,10.01
2022-10-06T01:44:50.765Z,10.02
2022-10-06T01:45:50.695Z,10.03
2022-10-06T01:46:50.751Z,10.04
2022-10-06T01:47:50.747Z,10.05
2022-10-06T01:48:50.668Z,10.05
2022-10-06T01:49:50.684Z,10.06
2022-10-06T01:50:50.661Z,10.08
2022-10-06T01:51:50.747Z,10.10
2022-10-06T01:52:50.636Z,10.11
2022-10-06T01:53:50.932Z,10.11
2022-10-06T01:54:50.636Z,10.11
2022-10-06T01:55:50.640Z,10.10
2022-10-06T01:56:50.609Z,10.10
2022-10-06T01:57:50.575Z,10.10
2022-10-06T01:58:50.581Z,10.09
2022-10-06T01:59:54.564Z,10.08
2022-10-06T02:00:50.595Z,10.07
2022-10-06T02:01:50.634Z,10.07
2022-10-06T02:02:50.562Z,10.06
2022-10-06T02:03:50.547Z,10.06
2022-10-06T02:04:50.525Z,10.05
2022-10-06T02:05:50.505Z,10.04
2022-10-06T02:06:50.489Z,10.03
2022-10-06T02:07:50.530Z,10.01
2022-10-06T02:08:50.522Z,10.00
2022-10-06T02:09:50.503Z,9.98
2022-10-06T02:10:50.458Z,9.96
2022-10-06T02:11:50.448Z,9.96
2022-10-06T02:12:50.432Z,9.96
2022-10-06T02:13:50.513Z,9.97
2022-10-06T02:14:50.430Z,9.96
2022-10-06T02:15:50.432Z,9.96
2022-10-06T02:16:50.487Z,9.96
2022-10-06T02:17:50.387Z,9.95
2022-10-06T02:18:50.372Z,9.95
2022-10-06T02:19:50.364Z,9.95
2022-10-06T02:20:50.348Z,9.95
2022-10-06T02:21:50.352Z,9.94
2022-10-06T02:22:50.391Z,9.93
2022-10-06T02:23:50.579Z,9.91
2022-10-06T02:24:50.324Z,9.88
2022-10-06T02:25:50.303Z,9.84
2022-10-06T02:26:50.291Z,9.80
2022-10-06T02:27:50.332Z,9.76
2022-10-06T02:28:50.314Z,9.71
2022-10-06T02:29:50.268Z,9.66
2022-10-06T02:30:50.289Z,9.62
2022-10-06T02:31:50.295Z,9.59
2022-10-06T02:32:50.233Z,9.57
2022-10-06T02:33:50.217Z,9.55
2022-10-06T02:34:50.217Z,9.53
2022-10-06T02:35:50.248Z,9.50
2022-10-06T02:36:50.190Z,9.46
2022-10-06T02:37:50.182Z,9.42
2022-10-06T02:38:50.176Z,9.39
2022-10-06T02:39:50.167Z,9.35
2022-10-06T02:40:50.166Z,9.33
2022-10-06T02:41:50.198Z,9.32
2022-10-06T02:42:50.154Z,9.30
2022-10-06T02:43:50.124Z,9.29
2022-10-06T02:44:50.119Z,9.27
2022-10-06T02:45:50.177Z,9.25
2022-10-06T02:46:50.214Z,9.24
2022-10-06T02:47:50.134Z,9.23
2022-10-06T02:48:50.079Z,9.24
2022-10-06T02:49:50.055Z,9.26
2022-10-06T02:50:50.061Z,9.29
2022-10-06T02:51:50.036Z,9.32
2022-10-06T02:52:50.079Z,9.35
2022-10-06T02:53:50.037Z,9.38
2022-10-06T02:54:50.009Z,9.41
2022-10-06T02:55:50.054Z,9.43
2022-10-06T02:56:49.995Z,9.45
2022-10-06T02:57:50.017Z,9.47
2022-10-06T02:58:49.970Z,9.49
2022-10-06T02:59:49.962Z,9.49
2022-10-06T03:00:49.980Z,9.49
2022-10-06T03:01:50.177Z,9.48
2022-10-06T03:02:49.981Z,9.48
2022-10-06T03:03:49.930Z,9.48
2022-10-06T03:04:49.909Z,9.48
2022-10-06T03:05:49.898Z,9.49
2022-10-06T03:06:49.888Z,9.50
2022-10-06T03:07:49.924Z,9.53
2022-10-06T03:08:49.865Z,9.55
2022-10-06T03:09:49.865Z,9.57
2022-10-06T03:10:49.847Z,9.60
2022-10-06T03:11:49.846Z,9.62
2022-10-06T03:12:49.824Z,9.63
2022-10-06T03:13:49.877Z,9.62
2022-10-06T03:14:49.824Z,9.60
2022-10-06T03:15:49.855Z,9.59
2022-10-06T03:16:49.791Z,9.59
2022-10-06T03:17:49.786Z,9.60
2022-10-06T03:18:49.774Z,9.59
2022-10-06T03:19:49.832Z,9.57
2022-10-06T03:20:49.753Z,9.55
2022-10-06T03:21:49.785Z,9.53
2022-10-06T03:22:49.730Z,9.50
2022-10-06T03:23:49.754Z,9.49
2022-10-06T03:24:49.766Z,9.49
2022-10-06T03:25:49.722Z,9.51
2022-10-06T03:26:49.741Z,9.54
2022-10-06T03:27:49.683Z,9.57
2022-10-06T03:28:49.739Z,9.61
2022-10-06T03:29:49.766Z,9.65
2022-10-06T03:30:49.691Z,9.71
2022-10-06T03:31:49.681Z,9.79
2022-10-06T03:32:49.673Z,9.86
2022-10-06T03:33:49.676Z,9.91
2022-10-06T03:34:49.616Z,9.94
2022-10-06T03:35:49.599Z,9.97
2022-10-06T03:36:49.585Z,9.99
2022-10-06T03:37:49.590Z,10.01
2022-10-06T03:38:49.617Z,10.03
2022-10-06T03:39:49.566Z,10.06
2022-10-06T03:40:49.546Z,10.06
2022-10-06T03:41:49.586Z,10.06
2022-10-06T03:42:49.554Z,10.04
2022-10-06T03:43:49.560Z,10.00
2022-10-06T03:44:49.550Z,9.96
2022-10-06T03:45:49.507Z,9.91
2022-10-06T03:46:49.642Z,9.85
2022-10-06T03:47:49.504Z,9.79
2022-10-06T03:48:49.478Z,9.74
2022-10-06T03:49:49.507Z,9.67
2022-10-06T03:50:49.530Z,9.60
2022-10-06T03:51:49.447Z,9.53
2022-10-06T03:52:49.424Z,9.48
2022-10-06T03:53:49.425Z,9.45
2022-10-06T03:54:49.420Z,9.42
2022-10-06T03:55:49.447Z,9.40
2022-10-06T03:56:49.403Z,9.38
2022-10-06T03:57:49.384Z,9.37
2022-10-06T03:58:49.375Z,9.35
2022-10-06T03:59:49.411Z,9.34
2022-10-06T04:00:49.404Z,9.32
2022-10-06T04:01:49.429Z,9.31
2022-10-06T04:02:49.336Z,9.30
2022-10-06T04:03:49.328Z,9.29
2022-10-06T04:04:49.317Z,9.26
2022-10-06T04:05:49.303Z,9.23
2022-10-06T04:06:49.402Z,9.19
2022-10-06T04:07:49.338Z,9.12
2022-10-06T04:08:49.278Z,9.03
2022-10-06T04:09:49.266Z,8.95
2022-10-06T04:10:49.256Z,8.87
2022-10-06T04:11:49.248Z,8.80
2022-10-06T04:12:49.299Z,8.73
2022-10-06T04:13:49.237Z,8.67
2022-10-06T04:14:49.218Z,8.64
2022-10-06T04:15:49.239Z,8.62
2022-10-06T04:16:49.194Z,8.60
2022-10-06T04:17:49.203Z,8.60
2022-10-06T04:18:49.230Z,8.61
2022-10-06T04:19:49.209Z,8.64
2022-10-06T04:20:49.154Z,8.68
2022-10-06T04:21:49.144Z,8.71
2022-10-06T04:22:49.198Z,8.73
2022-10-06T04:23:49.120Z,8.75
2022-10-06T04:24:49.112Z,8.77
2022-10-06T04:25:53.787Z,8.81
2022-10-06T04:26:49.304Z,8.86
2022-10-06T04:27:49.081Z,8.92
2022-10-06T04:28:49.134Z,8.98
2022-10-06T04:29:49.148Z,9.02
2022-10-06T04:30:49.102Z,9.07
2022-10-06T04:31:49.170Z,9.10
2022-10-06T04:32:49.046Z,9.12
2022-10-06T04:33:49.033Z,9.14
2022-10-06T04:34:49.013Z,9.16
2022-10-06T04:35:49.002Z,9.17
2022-10-06T04:36:49.044Z,9.17
2022-10-06T04:37:48.993Z,9.18
2022-10-06T04:38:48.972Z,9.17
2022-10-06T04:39:48.972Z,9.16
2022-10-06T04:40:48.948Z,9.15
2022-10-06T04:41:48.995Z,9.14
2022-10-06T04:42:48.992Z,9.14
2022-10-06T04:43:48.934Z,9.16
2022-10-06T04:44:48.988Z,9.17
2022-10-06T04:45:49.050Z,9.16
2022-10-06T04:46:48.979Z,9.14
2022-10-06T04:47:48.886Z,9.12
2022-10-06T04:48:48.922Z,9.11
2022-10-06T04:49:48.871Z,9.11
2022-10-06T04:50:48.851Z,9.11
2022-10-06T04:51:48.897Z,9.14
2022-10-06T04:52:48.842Z,9.18
2022-10-06T04:53:48.876Z,9.24
2022-10-06T04:54:48.802Z,9.31
2022-10-06T04:55:48.756Z,9.38
2022-10-06T04:56:48.797Z,9.43
2022-10-06T04:57:48.753Z,9.48
2022-10-06T04:58:48.769Z,9.51
2022-10-06T04:59:48.713Z,9.54
2022-10-06T05:00:48.734Z,9.56
2022-10-06T05:01:48.785Z,9.56
2022-10-06T05:02:48.700Z,9.54
2022-10-06T05:03:48.678Z,9.51
2022-10-06T05:04:48.671Z,9.47
2022-10-06T05:05:48.662Z,9.43
2022-10-06T05:06:48.636Z,9.39
2022-10-06T05:07:48.690Z,9.36
2022-10-06T05:08:48.688Z,9.34
2022-10-06T05:09:48.612Z,9.34
2022-10-06T05:10:48.609Z,9.37
2022-10-06T05:11:48.651Z,9.41
2022-10-06T05:12:48.596Z,9.47
2022-10-06T05:13:48.590Z,9.54
2022-10-06T05:14:48.558Z,9.63
2022-10-06T05:15:48.589Z,9.70
2022-10-06T05:16:48.631Z,9.77
2022-10-06T05:17:48.534Z,9.83
2022-10-06T05:18:48.568Z,9.87
2022-10-06T05:19:48.518Z,9.89
2022-10-06T05:20:48.554Z,9.92
2022-10-06T05:21:48.504Z,9.96
2022-10-06T05:22:48.494Z,10.00
2022-10-06T05:23:48.472Z,10.05
2022-10-06T05:24:48.469Z,10.09
2022-10-06T05:25:48.507Z,10.12
2022-10-06T05:26:48.492Z,10.13
2022-10-06T05:27:48.434Z,10.12
2022-10-06T05:28:48.491Z,10.10
2022-10-06T05:29:48.462Z,10.06
2022-10-06T05:30:48.406Z,10.02
2022-10-06T05:31:48.428Z,9.96
2022-10-06T05:32:48.429Z,9.91
2022-10-06T05:33:48.400Z,9.86
2022-10-06T05:34:48.382Z,9.80
2022-10-06T05:35:48.395Z,9.76
2022-10-06T05:36:48.404Z,9.73
2022-10-06T05:37:48.360Z,9.72
2022-10-06T05:38:48.330Z,9.71
2022-10-06T05:39:48.314Z,9.71
2022-10-06T05:40:48.332Z,9.72
2022-10-06T05:41:48.360Z,9.72
2022-10-06T05:42:48.291Z,9.72
2022-10-06T05:43:48.281Z,9.70
2022-10-06T05:44:48.296Z,9.69
2022-10-06T05:45:48.287Z,9.68
2022-10-06T05:46:48.309Z,9.66
2022-10-06T05:47:48.234Z,9.65
2022-10-06T05:48:48.229Z,9.62
2022-10-06T05:49:48.244Z,9.61
2022-10-06T05:50:48.205Z,9.60
2022-10-06T05:51:48.246Z,9.59
2022-10-06T05:52:48.189Z,9.60
2022-10-06T05:53:48.177Z,9.62
2022-10-06T05:54:48.176Z,9.63
2022-10-06T05:55:48.153Z,9.65
2022-10-06T05:56:48.194Z,9.67
2022-10-06T05:57:48.139Z,9.69
2022-10-06T05:58:48.136Z,9.70
2022-10-06T05:59:48.139Z,9.72
2022-10-06T06:00:48.167Z,9.74
2022-10-06T06:01:48.192Z,9.75
2022-10-06T06:02:48.170Z,9.77
2022-10-06T06:03:48.080Z,9.79
2022-10-06T06:04:48.094Z,9.81
2022-10-06T06:05:48.100Z,9.83
2022-10-06T06:06:48.050Z,9.86
2022-10-06T06:07:48.043Z,9.90
2022-10-06T06:08:48.062Z,9.94
2022-10-06T06:09:48.023Z,9.98
2022-10-06T06:10:48.001Z,10.02
2022-10-06T06:11:48.072Z,10.05
2022-10-06T06:12:48.037Z,10.08
2022-10-06T06:13:47.978Z,10.07
2022-10-06T06:14:47.975Z,9.98
2022-10-06T06:15:47.959Z,9.86
2022-10-06T06:16:48.055Z,9.76
2022-10-06T06:17:47.959Z,9.68
2022-10-06T06:18:47.928Z,9.64
2022-10-06T06:19:47.929Z,9.60
2022-10-06T06:20:47.906Z,9.58
2022-10-06T06:21:47.973Z,9.57
2022-10-06T06:22:47.889Z,9.57
2022-10-06T06:23:47.872Z,9.59
2022-10-06T06:24:47.867Z,9.60
2022-10-06T06:25:47.867Z,9.61
2022-10-06T06:26:47.840Z,9.61
2022-10-06T06:27:47.884Z,9.62
2022-10-06T06:28:47.971Z,9.63
2022-10-06T06:29:47.830Z,9.65
2022-10-06T06:30:47.872Z,9.66
2022-10-06T06:31:47.870Z,9.67
2022-10-06T06:32:47.855Z,9.69
2022-10-06T06:33:47.772Z,9.72
2022-10-06T06:34:47.759Z,9.76
2022-10-06T06:35:47.765Z,9.80
2022-10-06T06:36:47.751Z,9.83
2022-10-06T06:37:47.741Z,9.86
2022-10-06T06:38:47.764Z,9.89
2022-10-06T06:39:47.764Z,9.93
2022-10-06T06:40:47.749Z,9.98
2022-10-06T06:41:47.704Z,10.04
2022-10-06T06:42:52.933Z,10.09
2022-10-06T06:43:47.689Z,10.16
2022-10-06T06:44:47.713Z,10.22
2022-10-06T06:45:47.752Z,10.29
2022-10-06T06:46:47.644Z,10.36
2022-10-06T06:47:47.631Z,10.44
2022-10-06T06:48:47.622Z,10.53
2022-10-06T06:49:47.633Z,10.62
2022-10-06T06:50:47.650Z,10.69
2022-10-06T06:51:47.643Z,10.77
2022-10-06T06:52:47.587Z,10.86
2022-10-06T06:53:47.589Z,10.95
2022-10-06T06:54:47.558Z,11.03
2022-10-06T06:55:47.559Z,11.11
2022-10-06T06:56:47.607Z,11.18
2022-10-06T06:57:47.533Z,11.24
2022-10-06T06:58:47.517Z,11.29
2022-10-06T06:59:47.522Z,11.33
2022-10-06T07:00:47.508Z,11.37
2022-10-06T07:01:47.659Z,11.41
2022-10-06T07:02:47.533Z,11.45
2022-10-06T07:04:02.834Z,11.49
2022-10-06T07:04:47.465Z,11.53
2022-10-06T07:05:47.462Z,11.57
2022-10-06T07:06:47.443Z,11.60
2022-10-06T07:07:47.443Z,11.64
2022-10-06T07:08:47.428Z,11.69
2022-10-06T07:09:47.504Z,11.74
2022-10-06T07:10:47.405Z,11.82
2022-10-06T07:11:47.402Z,11.89
2022-10-06T07:12:47.420Z,11.98
2022-10-06T07:13:47.376Z,12.08
2022-10-06T07:14:47.467Z,12.20
2022-10-06T07:15:47.431Z,12.31
2022-10-06T07:16:47.417Z,12.39
2022-10-06T07:17:47.330Z,12.46
2022-10-06T07:18:47.319Z,12.51
2022-10-06T07:19:47.321Z,12.52
2022-10-06T07:20:47.305Z,12.54
2022-10-06T07:21:47.284Z,12.58
2022-10-06T07:22:47.334Z,12.65
2022-10-06T07:23:47.266Z,12.72
2022-10-06T07:24:47.361Z,12.79
2022-10-06T07:25:47.319Z,12.87
2022-10-06T07:26:47.245Z,12.94
2022-10-06T07:27:47.280Z,13.01
2022-10-06T07:28:47.292Z,13.05
2022-10-06T07:29:47.226Z,13.09
2022-10-06T07:30:47.205Z,13.12
2022-10-06T07:31:47.197Z,13.14
2022-10-06T07:32:47.242Z,13.16
2022-10-06T07:33:47.167Z,13.17
2022-10-06T07:34:47.175Z,13.16
2022-10-06T07:35:47.162Z,13.15
2022-10-06T07:36:47.142Z,13.18
2022-10-06T07:37:47.133Z,13.23
2022-10-06T07:38:47.163Z,13.30
2022-10-06T07:39:47.105Z,13.35
2022-10-06T07:41:14.609Z,13.38
2022-10-06T07:41:47.093Z,13.41
2022-10-06T07:42:47.080Z,13.44
2022-10-06T07:43:47.089Z,13.47
2022-10-06T07:44:47.127Z,13.49
2022-10-06T07:45:47.122Z,13.53
2022-10-06T07:46:47.040Z,13.59
2022-10-06T07:47:47.046Z,13.66
2022-10-06T07:48:47.140Z,13.72
2022-10-06T07:49:47.023Z,13.79
2022-10-06T07:50:47.006Z,13.84
2022-10-06T07:51:47.002Z,13.87
2022-10-06T07:52:46.979Z,13.93
2022-10-06T07:53:47.008Z,14.00
2022-10-06T07:54:46.987Z,14.09
2022-10-06T07:55:47.003Z,14.23
2022-10-06T07:56:46.945Z,14.38
2022-10-06T07:57:46.931Z,14.49
2022-10-06T07:58:46.947Z,14.54
2022-10-06T07:59:46.902Z,14.61
2022-10-06T08:00:46.909Z,14.71
2022-10-06T08:01:47.030Z,14.81
2022-10-06T08:02:46.913Z,14.90
2022-10-06T08:03:46.863Z,14.94
2022-10-06T08:04:46.917Z,14.93
2022-10-06T08:05:46.872Z,14.87
2022-10-06T08:06:46.837Z,14.82
2022-10-06T08:07:46.825Z,14.81
2022-10-06T08:08:50.352Z,14.83
2022-10-06T08:09:46.813Z,14.89
2022-10-06T08:10:46.854Z,14.97
2022-10-06T08:11:46.790Z,15.06
2022-10-06T08:13:46.785Z,15.13
2022-10-06T08:14:46.787Z,15.16
2022-10-06T08:15:46.826Z,15.26
2022-10-06T08:16:46.738Z,15.40
2022-10-06T08:17:46.744Z,15.54
2022-10-06T08:18:47.307Z,15.66
2022-10-06T08:19:46.719Z,15.71
2022-10-06T08:20:46.717Z,15.69
2022-10-06T08:21:46.682Z,15.64
2022-10-06T08:22:46.675Z,15.66
2022-10-06T08:23:46.682Z,15.75
2022-10-06T08:25:04.634Z,15.85
2022-10-06T08:25:46.735Z,15.92
2022-10-06T08:26:46.661Z,15.96
2022-10-06T08:27:51.277Z,16.00
2022-10-06T08:28:46.623Z,16.05
2022-10-06T08:29:46.610Z,16.07
2022-10-06T08:30:46.648Z,16.05
2022-10-06T08:31:46.684Z,16.05
2022-10-06T08:32:46.607Z,16.05
2022-10-06T08:33:46.566Z,16.03
2022-10-06T08:34:46.594Z,15.98
2022-10-06T08:35:46.599Z,15.93
2022-10-06T08:37:02.458Z,15.90
2022-10-06T08:37:46.594Z,15.84
2022-10-06T08:38:46.578Z,15.78
2022-10-06T08:39:46.510Z,15.73
2022-10-06T08:40:46.535Z,15.69
2022-10-06T08:41:46.548Z,15.66
2022-10-06T08:42:46.497Z,15.64
2022-10-06T08:43:46.473Z,15.61
2022-10-06T08:44:46.488Z,15.58
2022-10-06T08:45:46.480Z,15.55
2022-10-06T08:46:46.437Z,15.56
2022-10-06T08:47:46.482Z,15.59
2022-10-06T08:48:46.432Z,15.63
2022-10-06T08:49:46.452Z,15.68
2022-10-06T08:50:46.464Z,15.70
2022-10-06T08:51:46.393Z,15.70
2022-10-06T08:52:46.382Z,15.72
2022-10-06T08:53:46.380Z,15.70
2022-10-06T08:54:46.352Z,15.63
2022-10-06T08:55:46.349Z,15.56
2022-10-06T08:56:46.391Z,15.54
2022-10-06T08:57:46.385Z,15.53
2022-10-06T08:58:46.329Z,15.53
2022-10-06T08:59:46.324Z,15.51
2022-10-06T09:00:46.349Z,15.49
2022-10-06T09:01:46.561Z,15.49
2022-10-06T09:02:46.389Z,15.50
2022-10-06T09:03:46.267Z,15.52
2022-10-06T09:04:46.502Z,15.52
2022-10-06T09:05:46.244Z,15.52
2022-10-06T09:06:46.262Z,15.49
2022-10-06T09:07:46.235Z,15.43
2022-10-06T09:08:46.232Z,15.38
2022-10-06T09:09:46.219Z,15.32
2022-10-06T09:10:46.248Z,15.26
2022-10-06T09:11:46.237Z,15.20
2022-10-06T09:12:46.203Z,15.15
2022-10-06T09:13:46.211Z,15.14
2022-10-06T09:14:46.159Z,15.12
2022-10-06T09:15:46.182Z,15.11
2022-10-06T09:16:46.183Z,15.14
2022-10-06T09:17:46.121Z,15.18
2022-10-06T09:19:46.152Z,15.12
2022-10-06T09:20:46.128Z,15.07
2022-10-06T09:21:46.158Z,15.02
2022-10-06T09:22:46.088Z,15.00
2022-10-06T09:23:46.061Z,15.02
2022-10-06T09:24:47.473Z,15.04
2022-10-06T09:25:46.079Z,15.05
2022-10-06T09:26:46.034Z,15.06
2022-10-06T09:27:46.171Z,15.10
2022-10-06T09:28:46.055Z,15.20
2022-10-06T09:29:46.051Z,15.32
2022-10-06T09:30:46.259Z,15.38
2022-10-06T09:31:46.070Z,15.38
2022-10-06T09:32:46.033Z,15.41
2022-10-06T09:33:45.970Z,15.42
2022-10-06T09:34:45.961Z,15.42
2022-10-06T09:35:46.009Z,15.41
2022-10-06T09:36:45.931Z,15.38
2022-10-06T09:37:45.965Z,15.33
2022-10-06T09:38:45.924Z,15.27
2022-10-06T09:39:45.943Z,15.23
2022-10-06T09:40:45.950Z,15.23
2022-10-06T09:41:45.901Z,15.24
2022-10-06T09:42:45.874Z,15.28
2022-10-06T09:43:45.867Z,15.32
2022-10-06T09:44:45.869Z,15.33
2022-10-06T09:45:45.885Z,15.35
2022-10-06T09:46:45.831Z,15.37
2022-10-06T09:47:45.976Z,15.38
2022-10-06T09:48:45.834Z,15.40
2022-10-06T09:49:45.801Z,15.42
2022-10-06T09:50:45.858Z,15.44
2022-10-06T09:51:45.779Z,15.45
2022-10-06T09:52:45.771Z,15.45
2022-10-06T09:53:45.758Z,15.46
2022-10-06T09:54:45.754Z,15.50
2022-10-06T09:55:45.787Z,15.57
2022-10-06T09:56:45.734Z,15.63
2022-10-06T09:57:45.725Z,15.70
2022-10-06T09:58:45.862Z,15.74
2022-10-06T09:59:45.701Z,15.77
2022-10-06T10:00:45.799Z,15.77
2022-10-06T10:01:45.677Z,15.79
2022-10-06T10:02:45.753Z,15.85
2022-10-06T10:04:02.069Z,15.98
2022-10-06T10:04:49.512Z,16.09
2022-10-06T10:05:45.690Z,16.10
2022-10-06T10:06:45.692Z,16.03
2022-10-06T10:07:45.619Z,15.94
2022-10-06T10:08:45.685Z,15.85
2022-10-06T10:09:45.654Z,15.80
2022-10-06T10:10:45.592Z,15.78
2022-10-06T10:11:45.582Z,15.76
2022-10-06T10:12:45.581Z,15.71
2022-10-06T10:13:45.568Z,15.63
2022-10-06T10:14:45.569Z,15.57
2022-10-06T10:15:45.640Z,15.50
2022-10-06T10:16:47.668Z,15.45
2022-10-06T10:17:45.521Z,15.43
2022-10-06T10:18:45.509Z,15.44
2022-10-06T10:19:45.519Z,15.48
2022-10-06T10:20:45.583Z,15.49
2022-10-06T10:21:45.480Z,15.49
2022-10-06T10:22:45.471Z,15.51
2022-10-06T10:23:45.559Z,15.56
2022-10-06T10:24:45.461Z,15.67
2022-10-06T10:25:45.442Z,15.82
2022-10-06T10:26:45.484Z,15.95
2022-10-06T10:27:45.431Z,16.02
2022-10-06T10:28:45.414Z,16.08
2022-10-06T10:29:45.406Z,16.16
2022-10-06T10:30:45.389Z,16.24
2022-10-06T10:31:45.440Z,16.33
2022-10-06T10:32:45.414Z,16.41
2022-10-06T10:33:54.062Z,16.50
2022-10-06T10:34:45.533Z,16.57
2022-10-06T10:35:45.399Z,16.52
2022-10-06T10:36:45.342Z,16.40
2022-10-06T10:37:45.333Z,16.34
2022-10-06T10:38:45.312Z,16.37
2022-10-06T10:39:45.312Z,16.44
2022-10-06T10:40:45.339Z,16.52
2022-10-06T10:41:45.324Z,16.61
2022-10-06T10:42:45.283Z,16.70
2022-10-06T10:43:45.258Z,16.79
2022-10-06T10:44:45.244Z,16.87
2022-10-06T10:45:45.250Z,16.96
2022-10-06T10:46:45.317Z,17.18
2022-10-06T10:47:45.216Z,17.35
2022-10-06T10:48:45.217Z,17.41
2022-10-06T10:49:45.207Z,17.41
2022-10-06T10:50:45.256Z,17.37
2022-10-06T10:51:45.181Z,17.33
2022-10-06T10:52:45.168Z,17.21
2022-10-06T10:53:45.160Z,17.04
2022-10-06T10:54:45.165Z,16.92
2022-10-06T10:55:45.181Z,16.88
2022-10-06T10:56:45.139Z,16.90
2022-10-06T10:57:45.124Z,16.91
2022-10-06T10:58:45.219Z,16.86
2022-10-06T10:59:45.102Z,16.85
2022-10-06T11:00:45.384Z,16.89
2022-10-06T11:01:45.155Z,16.91
2022-10-06T11:02:45.088Z,16.84
2022-10-06T11:03:45.072Z,16.75
2022-10-06T11:04:45.110Z,16.68
2022-10-06T11:05:45.045Z,16.63
2022-10-06T11:06:45.047Z,16.59
2022-10-06T11:07:45.026Z,16.59
2022-10-06T11:08:45.030Z,16.61
2022-10-06T11:09:45.002Z,16.69
2022-10-06T11:10:45.038Z,16.80
2022-10-06T11:11:48.608Z,16.85
2022-10-06T11:12:45.008Z,16.86
2022-10-06T11:13:44.997Z,16.91
2022-10-06T11:14:44.952Z,17.02
2022-10-06T11:15:44.974Z,17.11
2022-10-06T11:16:44.975Z,17.17
2022-10-06T11:17:45.027Z,17.24
2022-10-06T11:18:44.917Z,17.33
2022-10-06T11:19:44.907Z,17.43
2022-10-06T11:20:45.427Z,17.54
2022-10-06T11:21:44.880Z,17.67
2022-10-06T11:22:44.920Z,17.84
2022-10-06T11:23:44.862Z,18.00
2022-10-06T11:24:44.861Z,17.99
2022-10-06T11:25:44.910Z,17.81
2022-10-06T11:26:44.874Z,17.65
2022-10-06T11:27:44.852Z,17.61
2022-10-06T11:28:44.857Z,17.60
2022-10-06T11:29:44.822Z,17.44
2022-10-06T11:30:44.836Z,17.17
2022-10-06T11:31:44.864Z,16.98
2022-10-06T11:32:44.789Z,16.95
2022-10-06T11:33:44.767Z,17.04
2022-10-06T11:34:44.746Z,17.15
2022-10-06T11:35:44.760Z,17.21
2022-10-06T11:36:44.737Z,17.16
2022-10-06T11:37:44.717Z,17.04
2022-10-06T11:38:44.716Z,16.96
2022-10-06T11:39:44.705Z,16.95
2022-10-06T11:40:44.711Z,16.96
2022-10-06T11:41:44.701Z,16.93
2022-10-06T11:42:44.750Z,16.93
2022-10-06T11:43:44.689Z,16.99
2022-10-06T11:44:44.657Z,17.11
2022-10-06T11:45:44.720Z,17.30
2022-10-06T11:46:45.335Z,17.37
2022-10-06T11:47:44.620Z,17.24
2022-10-06T11:48:44.648Z,17.11
2022-10-06T11:49:44.598Z,17.09
2022-10-06T11:50:44.620Z,17.08
2022-10-06T11:51:44.589Z,17.01
2022-10-06T11:52:44.572Z,16.88
2022-10-06T11:53:44.595Z,16.78
2022-10-06T11:54:44.587Z,16.74
2022-10-06T11:55:44.542Z,16.77
2022-10-06T11:56:44.535Z,16.79
2022-10-06T11:57:44.551Z,16.80
2022-10-06T11:58:44.509Z,16.84
2022-10-06T11:59:44.521Z,16.88
2022-10-06T12:00:44.506Z,16.95
2022-10-06T12:01:44.557Z,17.09
2022-10-06T12:02:44.711Z,17.30
2022-10-06T12:03:44.493Z,17.55
2022-10-06T12:04:44.455Z,17.82
2022-10-06T12:05:59.693Z,17.97
2022-10-06T12:06:44.458Z,17.94
2022-10-06T12:07:44.446Z,17.80
2022-10-06T12:08:44.423Z,17.71
2022-10-06T12:09:44.868Z,17.68
2022-10-06T12:10:44.386Z,17.64
2022-10-06T12:11:44.405Z,17.59
2022-10-06T12:12:47.738Z,17.62
2022-10-06T12:14:44.601Z,17.80
2022-10-06T12:17:19.325Z,18.30
2022-10-06T12:18:14.783Z,18.37
2022-10-06T12:19:14.741Z,18.49
2022-10-06T12:20:14.734Z,18.76
2022-10-06T12:21:14.788Z,18.95
2022-10-06T12:22:14.728Z,19.03
2022-10-06T12:23:14.708Z,19.18
2022-10-06T12:25:14.704Z,19.40
2022-10-06T12:26:14.724Z,19.37
2022-10-06T12:27:14.657Z,19.50
2022-10-06T12:28:14.735Z,19.75
2022-10-06T12:29:14.656Z,19.98
2022-10-06T12:30:14.681Z,20.16
2022-10-06T12:31:18.286Z,20.33
2022-10-06T12:32:14.617Z,20.50
2022-10-06T12:33:14.620Z,20.54
2022-10-06T12:34:14.645Z,20.50
2022-10-06T12:35:14.707Z,20.47
2022-10-06T12:36:14.607Z,20.45
2022-10-06T12:37:14.614Z,20.40
2022-10-06T12:38:14.631Z,20.38
2022-10-06T12:39:14.555Z,20.19
2022-10-06T12:40:14.543Z,19.79
2022-10-06T12:41:14.571Z,19.42
2022-10-06T12:42:14.529Z,19.24
2022-10-06T12:43:14.584Z,19.25
2022-10-06T12:44:14.556Z,19.43
2022-10-06T12:45:14.499Z,19.74
2022-10-06T12:46:14.535Z,20.12
2022-10-06T12:47:14.512Z,20.49
2022-10-06T12:48:14.463Z,20.83
2022-10-06T12:49:14.507Z,21.04
2022-10-06T12:50:14.444Z,21.02
2022-10-06T12:51:14.438Z,20.87
2022-10-06T12:52:14.416Z,20.73
2022-10-06T12:53:14.641Z,20.60
2022-10-06T12:54:14.458Z,20.47
2022-10-06T12:55:14.434Z,20.32
2022-10-06T12:56:14.388Z,20.18
2022-10-06T12:57:14.425Z,20.02
2022-10-06T12:58:14.367Z,19.82
2022-10-06T12:59:14.352Z,19.66
2022-10-06T13:00:14.438Z,19.58
2022-10-06T13:01:14.399Z,19.61
2022-10-06T13:02:14.341Z,19.74
2022-10-06T13:03:14.418Z,19.88
2022-10-06T13:04:14.334Z,19.98
2022-10-06T13:05:14.354Z,20.04
2022-10-06T13:06:14.317Z,20.10
2022-10-06T13:07:14.267Z,20.14